Hoven, South Dakota
Current Conditions -  °F | °C
As of 9:52 PM on Tuesday 21 Oct 2014 (Local Time) from KMBG Reporting Station
Clear Clear  
Wind Chill: 68°   Ceiling: Unl
Heat Index: 68°   Visibility: 10mi
Dew Point: 40°   Wind: 16mph
Humidity: 36%   Direction: 140°SE
Pressure: 29.71"   Gusts: NA
Location:  45.24°N, 99.78°W
Report Text: KMBG 220252Z AUTO 14014KT 10SM CLR 20/04 A2971 RMK AO2 SLP057 T02000044 51009 $
Loading
Personal Weather Stations






























Interactive Weather Map
Tropical Storm Tracking
New forecast layout! Learn more

10-Day Weather Forecast

Advertisements
Track Severe Weather on mobile